Date,TemperatureHighF,TemperatureAvgF,TemperatureLowF,DewpointHighF,DewpointAvgF,DewpointLowF,HumidityHigh,HumidityAvg,HumidityLow,PressureMaxIn,PressureMinIn,WindSpeedMaxMPH,WindSpeedAvgMPH,GustSpeedMaxMPH,PrecipitationSumIn
2013-11-1,64.0,49.1,0.0,57.1,39.4,21.6,87,67,52,29.97,29.40,21,8,24,0.52
2013-11-2,51.8,36.8,30.9,44.1,30.6,22.6,89,78,64,30.32,29.32,7,2,8,0.18
2013-11-3,43.7,30.6,21.2,28.4,15.9,0.9,82,56,21,30.86,29.37,7,0,7,0.14
2013-11-4,47.5,33.2,17.2,37.8,14.2,3.0,83,51,17,31.03,29.28,5,2,8,0.06
2013-11-5,60.3,47.1,32.9,47.3,26.8,8.8,85,47,22,30.89,29.17,8,3,14,0.07
2013-11-6,62.2,46.4,26.1,47.7,32.7,8.1,78,59,38,30.69,29.46,15,4,25,0.08
2013-11-7,57.2,44.1,22.1,50.8,36.1,4.6,89,74,38,30.26,29.72,12,4,19,0.34
2013-11-8,37.2,31.7,22.5,27.4,17.8,8.2,77,56,36,30.50,29.49,8,2,8,0.00
2013-11-9,39.7,33.1,25.3,32.9,22.4,7.0,82,65,42,30.54,29.20,8,3,12,0.15
2013-11-10,44.4,31.5,16.3,39.0,18.3,-3.6,85,60,30,30.35,29.27,12,4,12,0.18
2013-11-11,43.2,25.7,-2.9,33.8,15.3,-20.3,85,66,9,30.44,29.48,8,2,11,0.28
2013-11-12,39.6,23.4,-2.2,32.0,11.6,-15.9,75,60,26,30.67,29.33,6,2,8,0.30
2013-11-13,34.2,20.8,-11.7,22.9,5.1,-28.5,69,51,22,30.69,29.41,13,4,15,0.00
2013-11-14,46.9,35.7,-7.8,31.2,20.4,-23.9,65,54,31,30.36,29.57,10,5,14,0.01
2013-11-15,53.6,24.2,-6.3,22.9,5.3,-19.8,63,47,27,30.41,29.05,12,3,12,0.00
2013-11-16,60.4,36.1,-11.0,38.4,19.7,-26.1,93,54,26,30.58,29.21,7,2,7,0.38
2013-11-17,73.8,56.1,37.2,58.1,45.8,29.9,89,69,50,30.47,29.39,12,3,14,0.07
2013-11-18,79.9,51.0,32.2,62.8,38.1,22.9,93,62,44,30.04,29.20,17,8,25,0.32
2013-11-19,77.9,44.9,19.6,64.5,34.7,9.2,97,68,45,30.77,29.14,8,3,8,0.40
2013-11-20,68.4,33.6,14.5,59.3,23.6,5.9,96,68,26,30.96,29.24,4,1,4,0.21
2013-11-21,76.6,38.9,18.9,55.6,21.3,1.2,93,51,17,30.90,29.47,11,2,11,0.00
2013-11-22,80.2,44.4,32.2,60.9,39.3,24.8,95,83,41,30.62,29.58,11,2,40,0.32
2013-11-23,86.0,34.0,18.0,61.0,23.4,1.5,95,65,35,30.40,29.69,2,0,3,0.00
2013-11-24,85.1,28.5,8.6,60.8,9.6,-14.7,89,47,21,30.67,29.51,3,0,5,0.00
2013-11-25,86.0,34.3,5.7,63.3,17.5,-7.8,89,50,29,30.70,29.44,10,3,14,0.00
2013-11-26,87.4,42.6,31.8,65.1,30.4,6.1,86,63,32,30.50,29.51,10,2,11,0.00
2013-11-27,87.4,43.0,20.8,67.4,35.7,13.5,82,76,49,30.20,29.38,4,0,8,0.12
2013-11-28,77.4,33.6,2.5,68.3,26.3,-7.6,99,74,43,30.77,29.32,6,0,6,0.01
2013-11-29,82.0,24.4,-2.9,59.7,13.4,-14.4,98,64,36,31.09,29.56,2,0,2,0.00
2013-11-30,84.7,28.6,-1.7,58.5,16.4,-14.3,96,61,31,31.09,29.75,2,0,3,0.00